sensor_id;sensor_type;location;lat;lon;timestamp;temperature;humidity
56076;DHT22;41951;49.022;12.066;2022-12-26T00:00:38;6.60;99.90
56076;DHT22;41951;49.022;12.066;2022-12-26T00:03:03;6.60;99.90
56076;DHT22;41951;49.022;12.066;2022-12-26T00:05:34;6.70;99.90
56076;DHT22;41951;49.022;12.066;2022-12-26T00:08:00;6.70;99.90
56076;DHT22;41951;49.022;12.066;2022-12-26T00:10:25;6.70;99.90
56076;DHT22;41951;49.022;12.066;2022-12-26T00:12:51;6.70;99.90
56076;DHT22;41951;49.022;12.066;2022-12-26T00:15:17;6.70;99.90
56076;DHT22;41951;49.022;12.066;2022-12-26T00:17:42;6.60;99.90
56076;DHT22;41951;49.022;12.066;2022-12-26T00:20:08;6.70;99.90
56076;DHT22;41951;49.022;12.066;2022-12-26T00:22:34;6.70;99.90
56076;DHT22;41951;49.022;12.066;2022-12-26T00:24:59;6.70;99.90
56076;DHT22;41951;49.022;12.066;2022-12-26T00:27:25;6.60;99.90
56076;DHT22;41951;49.022;12.066;2022-12-26T00:29:50;6.60;99.90
56076;DHT22;41951;49.022;12.066;2022-12-26T00:32:16;6.60;99.90
56076;DHT22;41951;49.022;12.066;2022-12-26T00:34:41;6.60;99.90
56076;DHT22;41951;49.022;12.066;2022-12-26T00:37:07;6.60;99.90
56076;DHT22;41951;49.022;12.066;2022-12-26T00:39:32;6.60;99.90
56076;DHT22;41951;49.022;12.066;2022-12-26T00:41:58;6.70;99.90
56076;DHT22;41951;49.022;12.066;2022-12-26T00:44:23;6.60;99.90
56076;DHT22;41951;49.022;12.066;2022-12-26T00:46:49;6.60;99.90
56076;DHT22;41951;49.022;12.066;2022-12-26T00:49:14;6.60;99.90
56076;DHT22;41951;49.022;12.066;2022-12-26T00:51:40;6.60;99.90
56076;DHT22;41951;49.022;12.066;2022-12-26T00:54:05;6.60;99.90
56076;DHT22;41951;49.022;12.066;2022-12-26T00:56:31;6.60;99.90
56076;DHT22;41951;49.022;12.066;2022-12-26T00:58:56;6.60;99.90
56076;DHT22;41951;49.022;12.066;2022-12-26T01:01:22;6.60;99.90
56076;DHT22;41951;49.022;12.066;2022-12-26T01:03:49;6.60;99.90
56076;DHT22;41951;49.022;12.066;2022-12-26T01:06:15;6.50;99.90
56076;DHT22;41951;49.022;12.066;2022-12-26T01:08:41;6.60;99.90
56076;DHT22;41951;49.022;12.066;2022-12-26T01:11:10;6.60;99.90
56076;DHT22;41951;49.022;12.066;2022-12-26T01:13:36;6.70;99.90
56076;DHT22;41951;49.022;12.066;2022-12-26T01:16:02;6.70;99.90
56076;DHT22;41951;49.022;12.066;2022-12-26T01:18:29;6.70;99.90
56076;DHT22;41951;49.022;12.066;2022-12-26T01:21:04;6.60;99.90
56076;DHT22;41951;49.022;12.066;2022-12-26T01:23:30;6.60;99.90
56076;DHT22;41951;49.022;12.066;2022-12-26T01:25:55;6.60;99.90
56076;DHT22;41951;49.022;12.066;2022-12-26T01:28:21;6.60;99.90
56076;DHT22;41951;49.022;12.066;2022-12-26T01:30:47;6.60;99.90
56076;DHT22;41951;49.022;12.066;2022-12-26T01:33:12;6.70;99.90
56076;DHT22;41951;49.022;12.066;2022-12-26T01:35:38;6.70;99.90
56076;DHT22;41951;49.022;12.066;2022-12-26T01:38:04;6.70;99.90
56076;DHT22;41951;49.022;12.066;2022-12-26T01:40:29;6.70;99.90
56076;DHT22;41951;49.022;12.066;2022-12-26T01:42:55;6.70;99.90
56076;DHT22;41951;49.022;12.066;2022-12-26T01:45:28;6.60;99.90
56076;DHT22;41951;49.022;12.066;2022-12-26T01:48:23;6.70;99.90
56076;DHT22;41951;49.022;12.066;2022-12-26T01:51:00;6.70;99.90
56076;DHT22;41951;49.022;12.066;2022-12-26T01:53:34;6.70;99.90
56076;DHT22;41951;49.022;12.066;2022-12-26T01:56:12;6.70;99.90
56076;DHT22;41951;49.022;12.066;2022-12-26T01:58:42;6.80;99.90
56076;DHT22;41951;49.022;12.066;2022-12-26T02:01:09;6.80;99.90
56076;DHT22;41951;49.022;12.066;2022-12-26T02:03:36;6.80;99.90
56076;DHT22;41951;49.022;12.066;2022-12-26T02:06:22;6.70;99.90
56076;DHT22;41951;49.022;12.066;2022-12-26T02:08:48;6.70;99.90
56076;DHT22;41951;49.022;12.066;2022-12-26T02:11:35;6.70;99.90
56076;DHT22;41951;49.022;12.066;2022-12-26T02:14:00;6.70;99.90
56076;DHT22;41951;49.022;12.066;2022-12-26T02:16:26;6.60;99.90
56076;DHT22;41951;49.022;12.066;2022-12-26T02:18:51;6.70;99.90
56076;DHT22;41951;49.022;12.066;2022-12-26T02:27:16;6.60;99.90
56076;DHT22;41951;49.022;12.066;2022-12-26T02:32:40;6.60;99.90
56076;DHT22;41951;49.022;12.066;2022-12-26T02:38:14;6.60;99.90
56076;DHT22;41951;49.022;12.066;2022-12-26T02:46:40;6.60;99.90
56076;DHT22;41951;49.022;12.066;2022-12-26T02:49:59;6.60;99.90
56076;DHT22;41951;49.022;12.066;2022-12-26T02:53:11;6.70;99.90
56076;DHT22;41951;49.022;12.066;2022-12-26T02:56:05;6.70;99.90
56076;DHT22;41951;49.022;12.066;2022-12-26T02:59:17;6.70;99.90
56076;DHT22;41951;49.022;12.066;2022-12-26T03:02:16;6.60;99.90
56076;DHT22;41951;49.022;12.066;2022-12-26T03:05:03;6.60;99.90
56076;DHT22;41951;49.022;12.066;2022-12-26T03:07:49;6.60;99.90
56076;DHT22;41951;49.022;12.066;2022-12-26T03:10:34;6.60;99.90
56076;DHT22;41951;49.022;12.066;2022-12-26T03:13:26;6.50;99.90
56076;DHT22;41951;49.022;12.066;2022-12-26T03:15:59;6.50;99.90
56076;DHT22;41951;49.022;12.066;2022-12-26T03:18:47;6.50;99.90
56076;DHT22;41951;49.022;12.066;2022-12-26T03:21:16;6.50;99.90
56076;DHT22;41951;49.022;12.066;2022-12-26T03:23:45;6.50;99.90
56076;DHT22;41951;49.022;12.066;2022-12-26T03:26:14;6.40;99.90
56076;DHT22;41951;49.022;12.066;2022-12-26T03:28:59;6.40;99.90
56076;DHT22;41951;49.022;12.066;2022-12-26T03:31:44;6.40;99.90
56076;DHT22;41951;49.022;12.066;2022-12-26T03:34:09;6.40;99.90
56076;DHT22;41951;49.022;12.066;2022-12-26T03:46:19;6.40;99.90
56076;DHT22;41951;49.022;12.066;2022-12-26T03:49:17;6.30;99.90
56076;DHT22;41951;49.022;12.066;2022-12-26T03:55:11;6.40;99.90
56076;DHT22;41951;49.022;12.066;2022-12-26T03:58:04;6.40;99.90
56076;DHT22;41951;49.022;12.066;2022-12-26T04:00:51;6.40;99.90
56076;DHT22;41951;49.022;12.066;2022-12-26T04:03:37;6.40;99.90
56076;DHT22;41951;49.022;12.066;2022-12-26T04:06:26;6.40;99.90
56076;DHT22;41951;49.022;12.066;2022-12-26T04:09:21;6.40;99.90
56076;DHT22;41951;49.022;12.066;2022-12-26T04:12:13;6.40;99.90
56076;DHT22;41951;49.022;12.066;2022-12-26T04:15:09;6.40;99.90
56076;DHT22;41951;49.022;12.066;2022-12-26T04:18:02;6.50;99.90
56076;DHT22;41951;49.022;12.066;2022-12-26T04:21:03;6.40;99.90
56076;DHT22;41951;49.022;12.066;2022-12-26T04:23:37;6.50;99.90
56076;DHT22;41951;49.022;12.066;2022-12-26T04:26:36;6.50;99.90
56076;DHT22;41951;49.022;12.066;2022-12-26T04:29:21;6.50;99.90
56076;DHT22;41951;49.022;12.066;2022-12-26T04:32:40;6.50;99.90
56076;DHT22;41951;49.022;12.066;2022-12-26T04:36:01;6.50;99.90
56076;DHT22;41951;49.022;12.066;2022-12-26T04:39:04;6.50;99.90
56076;DHT22;41951;49.022;12.066;2022-12-26T04:41:52;6.50;99.90
56076;DHT22;41951;49.022;12.066;2022-12-26T04:44:37;6.50;99.90
56076;DHT22;41951;49.022;12.066;2022-12-26T04:47:03;6.40;99.90
56076;DHT22;41951;49.022;12.066;2022-12-26T04:49:29;6.50;99.90
56076;DHT22;41951;49.022;12.066;2022-12-26T04:52:14;6.50;99.90
56076;DHT22;41951;49.022;12.066;2022-12-26T04:54:40;6.50;99.90
56076;DHT22;41951;49.022;12.066;2022-12-26T04:57:06;6.50;99.90
56076;DHT22;41951;49.022;12.066;2022-12-26T04:59:32;6.40;99.90
56076;DHT22;41951;49.022;12.066;2022-12-26T05:01:58;6.50;99.90
56076;DHT22;41951;49.022;12.066;2022-12-26T05:04:42;6.50;99.90
56076;DHT22;41951;49.022;12.066;2022-12-26T05:07:32;6.50;99.90
56076;DHT22;41951;49.022;12.066;2022-12-26T05:10:25;6.40;99.90
56076;DHT22;41951;49.022;12.066;2022-12-26T05:12:51;6.40;99.90
56076;DHT22;41951;49.022;12.066;2022-12-26T05:15:18;6.40;99.90
56076;DHT22;41951;49.022;12.066;2022-12-26T05:17:44;6.50;99.90
56076;DHT22;41951;49.022;12.066;2022-12-26T05:20:28;6.50;99.90
56076;DHT22;41951;49.022;12.066;2022-12-26T05:23:03;6.50;99.90
56076;DHT22;41951;49.022;12.066;2022-12-26T05:25:48;6.40;99.90
56076;DHT22;41951;49.022;12.066;2022-12-26T05:28:32;6.50;99.90
56076;DHT22;41951;49.022;12.066;2022-12-26T05:31:17;6.50;99.90
56076;DHT22;41951;49.022;12.066;2022-12-26T05:33:42;6.50;99.90
56076;DHT22;41951;49.022;12.066;2022-12-26T05:36:30;6.50;99.90
56076;DHT22;41951;49.022;12.066;2022-12-26T05:38:57;6.50;99.90
56076;DHT22;41951;49.022;12.066;2022-12-26T05:41:23;6.50;99.90
56076;DHT22;41951;49.022;12.066;2022-12-26T05:43:49;6.50;99.90
56076;DHT22;41951;49.022;12.066;2022-12-26T05:46:14;6.50;99.90
56076;DHT22;41951;49.022;12.066;2022-12-26T05:48:40;6.50;99.90
56076;DHT22;41951;49.022;12.066;2022-12-26T05:51:06;6.50;99.90
56076;DHT22;41951;49.022;12.066;2022-12-26T05:53:32;6.50;99.90
56076;DHT22;41951;49.022;12.066;2022-12-26T05:56:05;6.40;99.90
56076;DHT22;41951;49.022;12.066;2022-12-26T05:58:31;6.50;99.90
56076;DHT22;41951;49.022;12.066;2022-12-26T06:03:32;6.40;99.90
56076;DHT22;41951;49.022;12.066;2022-12-26T06:05:58;6.40;99.90
56076;DHT22;41951;49.022;12.066;2022-12-26T06:08:23;6.40;99.90
56076;DHT22;41951;49.022;12.066;2022-12-26T06:10:49;6.50;99.90
56076;DHT22;41951;49.022;12.066;2022-12-26T06:13:14;6.50;99.90
56076;DHT22;41951;49.022;12.066;2022-12-26T06:15:40;6.50;99.90
56076;DHT22;41951;49.022;12.066;2022-12-26T06:18:05;6.60;99.90
56076;DHT22;41951;49.022;12.066;2022-12-26T06:20:31;6.60;99.90
56076;DHT22;41951;49.022;12.066;2022-12-26T06:22:57;6.50;99.90
56076;DHT22;41951;49.022;12.066;2022-12-26T06:25:22;6.60;99.90
56076;DHT22;41951;49.022;12.066;2022-12-26T06:27:48;6.50;99.90
56076;DHT22;41951;49.022;12.066;2022-12-26T06:30:13;6.50;99.90
56076;DHT22;41951;49.022;12.066;2022-12-26T06:32:39;6.50;99.90
56076;DHT22;41951;49.022;12.066;2022-12-26T06:35:05;6.50;99.90
56076;DHT22;41951;49.022;12.066;2022-12-26T06:37:32;6.60;99.90
56076;DHT22;41951;49.022;12.066;2022-12-26T06:39:58;6.60;99.90
56076;DHT22;41951;49.022;12.066;2022-12-26T06:42:23;6.60;99.90
56076;DHT22;41951;49.022;12.066;2022-12-26T06:44:49;6.70;99.90
56076;DHT22;41951;49.022;12.066;2022-12-26T06:47:14;6.70;99.90
56076;DHT22;41951;49.022;12.066;2022-12-26T06:49:40;6.70;99.90
56076;DHT22;41951;49.022;12.066;2022-12-26T06:52:05;6.60;99.90
56076;DHT22;41951;49.022;12.066;2022-12-26T06:54:32;6.60;99.90
56076;DHT22;41951;49.022;12.066;2022-12-26T06:56:59;6.60;99.90
56076;DHT22;41951;49.022;12.066;2022-12-26T06:59:25;6.60;99.90
56076;DHT22;41951;49.022;12.066;2022-12-26T07:01:50;6.70;99.90
56076;DHT22;41951;49.022;12.066;2022-12-26T07:04:16;6.70;99.90
56076;DHT22;41951;49.022;12.066;2022-12-26T07:06:41;6.70;99.90
56076;DHT22;41951;49.022;12.066;2022-12-26T07:09:09;6.60;99.90
56076;DHT22;41951;49.022;12.066;2022-12-26T07:11:38;6.60;99.90
56076;DHT22;41951;49.022;12.066;2022-12-26T07:14:05;6.70;99.90
56076;DHT22;41951;49.022;12.066;2022-12-26T07:16:34;6.60;99.90
56076;DHT22;41951;49.022;12.066;2022-12-26T07:18:59;6.60;99.90
56076;DHT22;41951;49.022;12.066;2022-12-26T07:21:25;6.50;99.90
56076;DHT22;41951;49.022;12.066;2022-12-26T07:23:52;6.50;99.90
56076;DHT22;41951;49.022;12.066;2022-12-26T07:26:18;6.50;99.90
56076;DHT22;41951;49.022;12.066;2022-12-26T07:28:44;6.50;99.90
56076;DHT22;41951;49.022;12.066;2022-12-26T07:31:18;6.40;99.90
56076;DHT22;41951;49.022;12.066;2022-12-26T07:33:51;6.40;99.90
56076;DHT22;41951;49.022;12.066;2022-12-26T07:36:18;6.40;99.90
56076;DHT22;41951;49.022;12.066;2022-12-26T07:38:44;6.50;99.90
56076;DHT22;41951;49.022;12.066;2022-12-26T07:41:09;6.50;99.90
56076;DHT22;41951;49.022;12.066;2022-12-26T07:43:53;6.60;99.90
56076;DHT22;41951;49.022;12.066;2022-12-26T07:46:19;6.60;99.90
56076;DHT22;41951;49.022;12.066;2022-12-26T07:48:45;6.50;99.90
56076;DHT22;41951;49.022;12.066;2022-12-26T07:51:11;6.60;99.90
56076;DHT22;41951;49.022;12.066;2022-12-26T07:53:37;6.60;99.90
56076;DHT22;41951;49.022;12.066;2022-12-26T07:56:02;6.60;99.90
56076;DHT22;41951;49.022;12.066;2022-12-26T07:58:28;6.60;99.90
56076;DHT22;41951;49.022;12.066;2022-12-26T08:00:53;6.50;99.90
56076;DHT22;41951;49.022;12.066;2022-12-26T08:03:19;6.50;99.90
56076;DHT22;41951;49.022;12.066;2022-12-26T08:05:48;6.50;99.90
56076;DHT22;41951;49.022;12.066;2022-12-26T08:08:15;6.60;99.90
56076;DHT22;41951;49.022;12.066;2022-12-26T08:10:40;6.70;99.90
56076;DHT22;41951;49.022;12.066;2022-12-26T08:13:06;6.70;99.90
56076;DHT22;41951;49.022;12.066;2022-12-26T08:15:33;6.70;99.90
56076;DHT22;41951;49.022;12.066;2022-12-26T08:17:59;6.70;99.90
56076;DHT22;41951;49.022;12.066;2022-12-26T08:20:24;6.70;99.90
56076;DHT22;41951;49.022;12.066;2022-12-26T08:22:50;6.70;99.90
56076;DHT22;41951;49.022;12.066;2022-12-26T08:25:15;6.70;99.90
56076;DHT22;41951;49.022;12.066;2022-12-26T08:27:41;6.70;99.90
56076;DHT22;41951;49.022;12.066;2022-12-26T08:30:07;6.80;99.90
56076;DHT22;41951;49.022;12.066;2022-12-26T08:32:33;6.70;99.90
56076;DHT22;41951;49.022;12.066;2022-12-26T08:34:58;6.80;99.90
56076;DHT22;41951;49.022;12.066;2022-12-26T08:37:24;6.80;99.90
56076;DHT22;41951;49.022;12.066;2022-12-26T08:39:50;6.80;99.90
56076;DHT22;41951;49.022;12.066;2022-12-26T08:42:18;6.80;99.90
56076;DHT22;41951;49.022;12.066;2022-12-26T08:44:44;6.70;99.90
56076;DHT22;41951;49.022;12.066;2022-12-26T08:47:09;6.70;99.90
56076;DHT22;41951;49.022;12.066;2022-12-26T08:49:35;6.70;99.90
56076;DHT22;41951;49.022;12.066;2022-12-26T08:52:00;6.70;99.90
56076;DHT22;41951;49.022;12.066;2022-12-26T08:54:26;6.60;99.90
56076;DHT22;41951;49.022;12.066;2022-12-26T08:56:51;6.60;99.90
56076;DHT22;41951;49.022;12.066;2022-12-26T08:59:17;6.70;99.90
56076;DHT22;41951;49.022;12.066;2022-12-26T09:01:43;6.60;99.90
56076;DHT22;41951;49.022;12.066;2022-12-26T09:04:08;6.70;99.90
56076;DHT22;41951;49.022;12.066;2022-12-26T09:06:35;6.60;99.90
56076;DHT22;41951;49.022;12.066;2022-12-26T09:09:02;6.60;99.90
56076;DHT22;41951;49.022;12.066;2022-12-26T09:11:28;6.60;99.90
56076;DHT22;41951;49.022;12.066;2022-12-26T09:13:57;6.60;99.90
56076;DHT22;41951;49.022;12.066;2022-12-26T09:16:25;6.60;99.90
56076;DHT22;41951;49.022;12.066;2022-12-26T09:18:56;6.70;99.90
56076;DHT22;41951;49.022;12.066;2022-12-26T09:21:22;6.70;99.90
56076;DHT22;41951;49.022;12.066;2022-12-26T09:23:48;6.80;99.90
56076;DHT22;41951;49.022;12.066;2022-12-26T09:26:16;6.80;99.90
56076;DHT22;41951;49.022;12.066;2022-12-26T09:28:42;6.80;99.90
56076;DHT22;41951;49.022;12.066;2022-12-26T09:31:16;6.90;99.90
56076;DHT22;41951;49.022;12.066;2022-12-26T09:33:42;7.00;99.90
56076;DHT22;41951;49.022;12.066;2022-12-26T09:36:10;7.00;99.90
56076;DHT22;41951;49.022;12.066;2022-12-26T09:38:36;7.00;99.90
56076;DHT22;41951;49.022;12.066;2022-12-26T09:44:05;7.00;99.90
56076;DHT22;41951;49.022;12.066;2022-12-26T09:49:27;7.10;99.90
56076;DHT22;41951;49.022;12.066;2022-12-26T09:51:58;6.90;99.90
56076;DHT22;41951;49.022;12.066;2022-12-26T09:54:36;7.10;99.90
56076;DHT22;41951;49.022;12.066;2022-12-26T09:57:08;7.10;99.90
56076;DHT22;41951;49.022;12.066;2022-12-26T09:59:53;7.10;99.90
56076;DHT22;41951;49.022;12.066;2022-12-26T10:02:21;7.10;99.90
56076;DHT22;41951;49.022;12.066;2022-12-26T10:04:47;7.20;99.90
56076;DHT22;41951;49.022;12.066;2022-12-26T10:10:09;7.20;99.90
56076;DHT22;41951;49.022;12.066;2022-12-26T10:21:00;7.30;99.90
56076;DHT22;41951;49.022;12.066;2022-12-26T10:26:41;7.30;99.90
56076;DHT22;41951;49.022;12.066;2022-12-26T10:31:59;7.30;99.90
56076;DHT22;41951;49.022;12.066;2022-12-26T10:37:06;7.40;99.90
56076;DHT22;41951;49.022;12.066;2022-12-26T10:39:47;7.40;99.90
56076;DHT22;41951;49.022;12.066;2022-12-26T10:42:40;7.40;99.90
56076;DHT22;41951;49.022;12.066;2022-12-26T10:48:12;7.40;99.90
56076;DHT22;41951;49.022;12.066;2022-12-26T10:50:42;7.40;99.90
56076;DHT22;41951;49.022;12.066;2022-12-26T10:53:12;7.50;99.90
56076;DHT22;41951;49.022;12.066;2022-12-26T10:55:38;7.50;99.90
56076;DHT22;41951;49.022;12.066;2022-12-26T10:58:30;7.50;99.90
56076;DHT22;41951;49.022;12.066;2022-12-26T11:01:36;7.50;99.90
56076;DHT22;41951;49.022;12.066;2022-12-26T11:04:05;7.50;99.90
56076;DHT22;41951;49.022;12.066;2022-12-26T11:06:37;7.60;99.90
56076;DHT22;41951;49.022;12.066;2022-12-26T11:09:03;7.60;99.90
56076;DHT22;41951;49.022;12.066;2022-12-26T11:11:31;7.60;99.90
56076;DHT22;41951;49.022;12.066;2022-12-26T11:14:30;7.60;99.90
56076;DHT22;41951;49.022;12.066;2022-12-26T11:17:10;7.60;99.90
56076;DHT22;41951;49.022;12.066;2022-12-26T11:19:41;7.60;99.90
56076;DHT22;41951;49.022;12.066;2022-12-26T11:27:32;7.60;99.90
56076;DHT22;41951;49.022;12.066;2022-12-26T11:32:41;7.60;99.90
56076;DHT22;41951;49.022;12.066;2022-12-26T11:35:22;7.60;99.90
56076;DHT22;41951;49.022;12.066;2022-12-26T11:37:56;7.70;99.90
56076;DHT22;41951;49.022;12.066;2022-12-26T11:40:36;7.90;99.90
56076;DHT22;41951;49.022;12.066;2022-12-26T11:43:06;8.10;99.90
56076;DHT22;41951;49.022;12.066;2022-12-26T11:45:41;8.30;99.90
56076;DHT22;41951;49.022;12.066;2022-12-26T11:48:20;8.40;99.90
56076;DHT22;41951;49.022;12.066;2022-12-26T11:50:47;8.50;99.90
56076;DHT22;41951;49.022;12.066;2022-12-26T11:53:17;8.60;99.90
56076;DHT22;41951;49.022;12.066;2022-12-26T11:55:44;8.60;99.90
56076;DHT22;41951;49.022;12.066;2022-12-26T11:58:19;8.70;99.90
56076;DHT22;41951;49.022;12.066;2022-12-26T12:09:16;8.90;99.90
56076;DHT22;41951;49.022;12.066;2022-12-26T12:12:02;8.90;99.90
56076;DHT22;41951;49.022;12.066;2022-12-26T12:17:10;8.90;99.90
56076;DHT22;41951;49.022;12.066;2022-12-26T12:22:12;9.00;99.90
56076;DHT22;41951;49.022;12.066;2022-12-26T12:27:19;9.10;99.90
56076;DHT22;41951;49.022;12.066;2022-12-26T12:43:40;9.30;99.90
56076;DHT22;41951;49.022;12.066;2022-12-26T12:57:00;9.30;99.90
56076;DHT22;41951;49.022;12.066;2022-12-26T13:02:37;9.30;99.90
56076;DHT22;41951;49.022;12.066;2022-12-26T13:08:19;9.40;99.90
56076;DHT22;41951;49.022;12.066;2022-12-26T13:10:52;9.40;99.90
56076;DHT22;41951;49.022;12.066;2022-12-26T13:13:46;9.40;99.90
56076;DHT22;41951;49.022;12.066;2022-12-26T13:16:16;9.40;99.90
56076;DHT22;41951;49.022;12.066;2022-12-26T13:19:00;9.40;99.90
56076;DHT22;41951;49.022;12.066;2022-12-26T13:21:29;9.40;99.90
56076;DHT22;41951;49.022;12.066;2022-12-26T13:24:04;9.40;99.90
56076;DHT22;41951;49.022;12.066;2022-12-26T13:27:05;9.40;99.90
56076;DHT22;41951;49.022;12.066;2022-12-26T13:29:40;9.40;99.90
56076;DHT22;41951;49.022;12.066;2022-12-26T13:32:22;9.40;99.90
56076;DHT22;41951;49.022;12.066;2022-12-26T13:34:49;9.40;99.90
56076;DHT22;41951;49.022;12.066;2022-12-26T13:40:15;9.30;99.90
56076;DHT22;41951;49.022;12.066;2022-12-26T13:42:49;9.30;99.90
56076;DHT22;41951;49.022;12.066;2022-12-26T13:45:38;9.30;99.90
56076;DHT22;41951;49.022;12.066;2022-12-26T13:54:19;9.20;99.90
56076;DHT22;41951;49.022;12.066;2022-12-26T13:56:57;9.20;99.90
56076;DHT22;41951;49.022;12.066;2022-12-26T13:59:32;9.20;99.90
56076;DHT22;41951;49.022;12.066;2022-12-26T14:05:24;9.20;99.90
56076;DHT22;41951;49.022;12.066;2022-12-26T14:10:47;9.20;99.90
56076;DHT22;41951;49.022;12.066;2022-12-26T14:16:52;9.10;99.90
56076;DHT22;41951;49.022;12.066;2022-12-26T14:22:33;9.10;99.90
56076;DHT22;41951;49.022;12.066;2022-12-26T14:25:20;9.10;99.90
56076;DHT22;41951;49.022;12.066;2022-12-26T14:35:40;9.10;99.90
56076;DHT22;41951;49.022;12.066;2022-12-26T14:41:13;9.10;99.90
56076;DHT22;41951;49.022;12.066;2022-12-26T14:51:48;9.00;99.90
56076;DHT22;41951;49.022;12.066;2022-12-26T14:56:50;9.00;99.90
56076;DHT22;41951;49.022;12.066;2022-12-26T14:59:32;9.00;99.90
56076;DHT22;41951;49.022;12.066;2022-12-26T15:04:44;8.90;99.90
56076;DHT22;41951;49.022;12.066;2022-12-26T15:31:05;8.80;99.90
56076;DHT22;41951;49.022;12.066;2022-12-26T15:33:55;8.80;99.90
56076;DHT22;41951;49.022;12.066;2022-12-26T15:39:37;8.80;99.90
56076;DHT22;41951;49.022;12.066;2022-12-26T15:45:03;8.80;99.90
56076;DHT22;41951;49.022;12.066;2022-12-26T15:58:08;8.80;99.90
56076;DHT22;41951;49.022;12.066;2022-12-26T16:02:49;8.80;99.90
56076;DHT22;41951;49.022;12.066;2022-12-26T16:11:28;8.90;99.90
56076;DHT22;41951;49.022;12.066;2022-12-26T16:13:57;8.80;99.90
56076;DHT22;41951;49.022;12.066;2022-12-26T16:16:29;8.90;99.90
56076;DHT22;41951;49.022;12.066;2022-12-26T16:18:54;8.90;99.90
56076;DHT22;41951;49.022;12.066;2022-12-26T16:21:23;8.90;99.90
56076;DHT22;41951;49.022;12.066;2022-12-26T16:24:10;8.90;99.90
56076;DHT22;41951;49.022;12.066;2022-12-26T16:26:41;8.80;99.90
56076;DHT22;41951;49.022;12.066;2022-12-26T16:29:08;8.80;99.90
56076;DHT22;41951;49.022;12.066;2022-12-26T16:31:38;8.80;99.90
56076;DHT22;41951;49.022;12.066;2022-12-26T16:34:03;8.90;99.90
56076;DHT22;41951;49.022;12.066;2022-12-26T16:36:31;8.80;99.90
56076;DHT22;41951;49.022;12.066;2022-12-26T16:39:00;8.90;99.90
56076;DHT22;41951;49.022;12.066;2022-12-26T16:41:31;8.80;99.90
56076;DHT22;41951;49.022;12.066;2022-12-26T16:46:50;8.90;99.90
56076;DHT22;41951;49.022;12.066;2022-12-26T16:49:24;8.90;99.90
56076;DHT22;41951;49.022;12.066;2022-12-26T16:51:53;8.80;99.90
56076;DHT22;41951;49.022;12.066;2022-12-26T17:02:02;8.90;99.90
56076;DHT22;41951;49.022;12.066;2022-12-26T17:04:29;8.90;99.90
56076;DHT22;41951;49.022;12.066;2022-12-26T17:07:02;8.80;99.90
56076;DHT22;41951;49.022;12.066;2022-12-26T17:09:38;8.80;99.90
56076;DHT22;41951;49.022;12.066;2022-12-26T17:12:12;8.80;99.90
56076;DHT22;41951;49.022;12.066;2022-12-26T17:14:45;8.80;99.90
56076;DHT22;41951;49.022;12.066;2022-12-26T17:19:46;8.80;99.90
56076;DHT22;41951;49.022;12.066;2022-12-26T17:24:45;8.80;99.90
56076;DHT22;41951;49.022;12.066;2022-12-26T17:29:51;9.00;99.90
56076;DHT22;41951;49.022;12.066;2022-12-26T17:32:35;8.90;99.90
56076;DHT22;41951;49.022;12.066;2022-12-26T17:35:05;8.90;99.90
56076;DHT22;41951;49.022;12.066;2022-12-26T17:37:31;8.90;99.90
56076;DHT22;41951;49.022;12.066;2022-12-26T17:45:30;9.00;99.90
56076;DHT22;41951;49.022;12.066;2022-12-26T17:47:57;9.00;99.90
56076;DHT22;41951;49.022;12.066;2022-12-26T17:50:28;9.00;99.90
56076;DHT22;41951;49.022;12.066;2022-12-26T17:55:45;9.00;99.90
56076;DHT22;41951;49.022;12.066;2022-12-26T17:58:12;8.90;99.90
56076;DHT22;41951;49.022;12.066;2022-12-26T18:00:38;8.90;99.90
56076;DHT22;41951;49.022;12.066;2022-12-26T18:03:04;9.00;99.90
56076;DHT22;41951;49.022;12.066;2022-12-26T18:05:29;9.00;99.90
56076;DHT22;41951;49.022;12.066;2022-12-26T18:07:55;9.00;99.90
56076;DHT22;41951;49.022;12.066;2022-12-26T18:10:26;9.00;99.90
56076;DHT22;41951;49.022;12.066;2022-12-26T18:12:56;9.00;99.90
56076;DHT22;41951;49.022;12.066;2022-12-26T18:15:24;9.00;99.90
56076;DHT22;41951;49.022;12.066;2022-12-26T18:17:51;9.10;99.90
56076;DHT22;41951;49.022;12.066;2022-12-26T18:20:20;9.10;99.90
56076;DHT22;41951;49.022;12.066;2022-12-26T18:22:47;9.00;99.90
56076;DHT22;41951;49.022;12.066;2022-12-26T18:25:14;9.00;99.90
56076;DHT22;41951;49.022;12.066;2022-12-26T18:27:40;9.00;99.90
56076;DHT22;41951;49.022;12.066;2022-12-26T18:30:15;9.00;99.90
56076;DHT22;41951;49.022;12.066;2022-12-26T18:32:42;9.00;99.90
56076;DHT22;41951;49.022;12.066;2022-12-26T18:35:08;8.90;99.90
56076;DHT22;41951;49.022;12.066;2022-12-26T18:37:34;8.90;99.90
56076;DHT22;41951;49.022;12.066;2022-12-26T18:40:00;9.00;99.90
56076;DHT22;41951;49.022;12.066;2022-12-26T18:42:26;9.00;99.90
56076;DHT22;41951;49.022;12.066;2022-12-26T18:44:52;9.00;99.90
56076;DHT22;41951;49.022;12.066;2022-12-26T18:47:19;9.00;99.90
56076;DHT22;41951;49.022;12.066;2022-12-26T18:49:46;9.00;99.90
56076;DHT22;41951;49.022;12.066;2022-12-26T18:52:13;9.00;99.90
56076;DHT22;41951;49.022;12.066;2022-12-26T18:54:39;9.00;99.90
56076;DHT22;41951;49.022;12.066;2022-12-26T18:57:06;9.00;99.90
56076;DHT22;41951;49.022;12.066;2022-12-26T18:59:32;9.00;99.90
56076;DHT22;41951;49.022;12.066;2022-12-26T19:01:58;9.00;99.90
56076;DHT22;41951;49.022;12.066;2022-12-26T19:04:23;9.00;99.90
56076;DHT22;41951;49.022;12.066;2022-12-26T19:06:49;9.00;99.90
56076;DHT22;41951;49.022;12.066;2022-12-26T19:09:15;9.10;99.90
56076;DHT22;41951;49.022;12.066;2022-12-26T19:11:41;9.10;99.90
56076;DHT22;41951;49.022;12.066;2022-12-26T19:14:08;9.10;99.90
56076;DHT22;41951;49.022;12.066;2022-12-26T19:16:40;9.10;99.90
56076;DHT22;41951;49.022;12.066;2022-12-26T19:19:06;9.10;99.90
56076;DHT22;41951;49.022;12.066;2022-12-26T19:21:31;9.10;99.90
56076;DHT22;41951;49.022;12.066;2022-12-26T19:23:57;9.10;99.90
56076;DHT22;41951;49.022;12.066;2022-12-26T19:26:22;9.10;99.90
56076;DHT22;41951;49.022;12.066;2022-12-26T19:28:53;9.10;99.90
56076;DHT22;41951;49.022;12.066;2022-12-26T19:31:19;9.10;99.90
56076;DHT22;41951;49.022;12.066;2022-12-26T19:33:44;9.10;99.90
56076;DHT22;41951;49.022;12.066;2022-12-26T19:36:11;9.00;99.90
56076;DHT22;41951;49.022;12.066;2022-12-26T19:38:36;9.10;99.90
56076;DHT22;41951;49.022;12.066;2022-12-26T19:41:10;9.10;99.90
56076;DHT22;41951;49.022;12.066;2022-12-26T19:43:37;9.00;99.90
56076;DHT22;41951;49.022;12.066;2022-12-26T19:46:06;9.10;99.90
56076;DHT22;41951;49.022;12.066;2022-12-26T19:48:33;9.10;99.90
56076;DHT22;41951;49.022;12.066;2022-12-26T19:51:00;9.00;99.90
56076;DHT22;41951;49.022;12.066;2022-12-26T19:53:26;9.00;99.90
56076;DHT22;41951;49.022;12.066;2022-12-26T19:55:51;9.00;99.90